Taft, Ohio
Current Conditions -  °F | °C
As of 4:53 AM on Thursday 18 Dec 2014 (Local Time) from KLUK Reporting Station
Overcast Overcast  
Wind Chill: -6°   Ceiling: 2000
Heat Index: -3°   Visibility: 10mi
Dew Point: -7°   Wind: 5mph
Humidity: 75%   Direction: 10°N
Pressure: 30.3"   Gusts: NA
Location:  39.2094°N, 84.3952°W
Report Text: KLUK 180953Z AUTO 01004KT 10SM BKN020 OVC028 M03/M07 A3030 RMK AO2 SLP265 T10331072
Loading
Personal Weather Stations






























Interactive Weather Map New forecast layout! Learn more

10-Day Weather Forecast

Advertisements
Track Severe Weather on mobile